createdAt,value
2022-12-15T00:01:31.508Z,-11.70
2022-12-15T00:04:19.726Z,-11.69
2022-12-15T00:07:08.396Z,-11.70
2022-12-15T00:09:57.152Z,-11.76
2022-12-15T00:12:45.592Z,-11.87
2022-12-15T00:15:34.222Z,-11.83
2022-12-15T00:18:26.072Z,-11.76
2022-12-15T00:21:18.536Z,-11.81
2022-12-15T00:24:06.431Z,-11.85
2022-12-15T00:26:54.790Z,-11.98
2022-12-15T00:29:43.106Z,-12.10
2022-12-15T00:32:31.508Z,-12.10
2022-12-15T00:35:19.935Z,-12.01
2022-12-15T00:38:08.224Z,-12.02
2022-12-15T00:40:38.281Z,-12.12
2022-12-15T00:43:05.737Z,-12.16
2022-12-15T00:45:54.318Z,-12.12
2022-12-15T00:48:24.247Z,-12.11
2022-12-15T00:50:54.074Z,-12.14
2022-12-15T00:53:44.473Z,-12.22
2022-12-15T00:56:32.922Z,-12.23
2022-12-15T00:59:21.727Z,-12.31
2022-12-15T01:02:10.082Z,-12.39
2022-12-15T01:04:58.384Z,-12.37
2022-12-15T01:07:44.544Z,-12.32
2022-12-15T01:10:37.959Z,-12.26
2022-12-15T01:13:25.288Z,-12.17
2022-12-15T01:16:11.622Z,-12.11
2022-12-15T01:19:00.545Z,-12.11
2022-12-15T01:21:32.528Z,-12.05
2022-12-15T01:24:01.714Z,-12.03
2022-12-15T01:26:31.415Z,-12.03
2022-12-15T01:29:01.297Z,-12.04
2022-12-15T01:31:31.170Z,-12.06
2022-12-15T01:34:01.079Z,-12.13
2022-12-15T01:36:31.043Z,-12.12
2022-12-15T01:39:02.210Z,-12.10
2022-12-15T01:41:31.211Z,-12.07
2022-12-15T01:44:24.593Z,-12.10
2022-12-15T01:46:56.947Z,-12.14
2022-12-15T01:49:32.708Z,-12.16
2022-12-15T01:55:49.689Z,-12.37
2022-12-15T01:58:22.141Z,-12.43
2022-12-15T02:00:52.273Z,-12.48
2022-12-15T02:03:24.113Z,-12.55
2022-12-15T02:05:57.253Z,-12.56
2022-12-15T02:08:28.840Z,-12.56
2022-12-15T02:11:22.694Z,-12.60
2022-12-15T02:14:03.281Z,-12.66
2022-12-15T02:17:12.741Z,-12.67
2022-12-15T02:20:30.744Z,-12.56
2022-12-15T02:24:06.610Z,-12.44
2022-12-15T02:27:27.290Z,-12.52
2022-12-15T02:31:10.034Z,-12.59
2022-12-15T02:34:04.001Z,-12.57
2022-12-15T02:36:46.848Z,-12.63
2022-12-15T02:39:14.941Z,-12.67
2022-12-15T02:41:49.094Z,-12.74
2022-12-15T02:44:59.572Z,-12.77
2022-12-15T02:47:48.803Z,-12.81
2022-12-15T02:50:45.702Z,-12.77
2022-12-15T02:54:11.376Z,-12.76
2022-12-15T02:57:17.490Z,-12.83
2022-12-15T03:00:08.037Z,-12.86
2022-12-15T03:02:48.690Z,-12.80
2022-12-15T03:05:24.302Z,-12.82
2022-12-15T03:07:55.044Z,-12.84
2022-12-15T03:10:26.558Z,-12.91
2022-12-15T03:12:55.624Z,-12.97
2022-12-15T03:15:29.067Z,-13.00
2022-12-15T03:17:59.066Z,-13.05
2022-12-15T03:20:26.347Z,-13.08
2022-12-15T03:22:56.350Z,-13.02
2022-12-15T03:25:26.493Z,-12.93
2022-12-15T03:27:56.959Z,-12.87
2022-12-15T03:30:27.248Z,-12.80
2022-12-15T03:32:56.958Z,-12.74
2022-12-15T03:35:26.993Z,-12.67
2022-12-15T03:37:57.306Z,-12.67
2022-12-15T03:40:27.298Z,-12.77
2022-12-15T03:42:58.158Z,-12.85
2022-12-15T03:45:29.704Z,-12.84
2022-12-15T03:47:58.905Z,-12.90
2022-12-15T03:50:30.594Z,-12.93
2022-12-15T03:53:03.802Z,-12.87
2022-12-15T03:55:32.090Z,-12.79
2022-12-15T03:58:02.792Z,-12.75
2022-12-15T04:00:32.941Z,-12.76
2022-12-15T04:03:02.768Z,-12.80
2022-12-15T04:05:35.693Z,-12.85
2022-12-15T04:08:06.912Z,-12.82
2022-12-15T04:10:36.250Z,-12.76
2022-12-15T04:13:12.256Z,-12.68
2022-12-15T04:15:41.288Z,-12.58
2022-12-15T04:18:11.006Z,-12.53
2022-12-15T04:20:40.692Z,-12.51
2022-12-15T04:23:10.689Z,-12.41
2022-12-15T04:25:59.243Z,-12.30
2022-12-15T04:28:47.798Z,-12.13
2022-12-15T04:31:46.816Z,-11.98
2022-12-15T04:34:43.541Z,-11.96
2022-12-15T04:37:33.495Z,-11.97
2022-12-15T04:40:25.456Z,-11.99
2022-12-15T04:43:14.481Z,-12.07
2022-12-15T04:46:03.233Z,-11.91
2022-12-15T04:48:51.706Z,-12.07
2022-12-15T04:51:39.527Z,-12.05
2022-12-15T04:54:28.034Z,-12.00
2022-12-15T04:57:16.464Z,-12.04
2022-12-15T05:00:04.969Z,-12.03
2022-12-15T05:02:53.452Z,-11.91
2022-12-15T05:05:42.201Z,-11.96
2022-12-15T05:08:30.652Z,-11.83
2022-12-15T05:11:19.093Z,-11.79
2022-12-15T05:14:07.645Z,-11.82
2022-12-15T05:16:56.463Z,-11.75
2022-12-15T05:19:44.927Z,-11.67
2022-12-15T05:22:33.355Z,-11.55
2022-12-15T05:25:23.384Z,-11.54
2022-12-15T05:28:12.775Z,-11.43
2022-12-15T05:31:01.411Z,-11.32
2022-12-15T05:33:31.636Z,-11.41
2022-12-15T05:36:02.040Z,-11.45
2022-12-15T05:38:32.099Z,-11.46
2022-12-15T05:41:02.101Z,-11.45
2022-12-15T05:43:32.401Z,-11.70
2022-12-15T05:46:06.253Z,-11.74
2022-12-15T05:48:36.595Z,-11.75
2022-12-15T05:51:11.179Z,-11.73
2022-12-15T05:53:43.261Z,-11.78
2022-12-15T05:56:16.199Z,-11.70
2022-12-15T05:58:46.237Z,-11.77
2022-12-15T06:01:19.522Z,-11.86
2022-12-15T06:03:50.017Z,-11.90
2022-12-15T06:06:21.324Z,-11.83
2022-12-15T06:08:51.424Z,-11.85
2022-12-15T06:11:22.784Z,-12.02
2022-12-15T06:13:55.580Z,-12.02
2022-12-15T06:16:28.256Z,-11.95
2022-12-15T06:19:02.348Z,-11.95
2022-12-15T06:21:36.810Z,-11.91
2022-12-15T06:24:08.140Z,-12.05
2022-12-15T06:26:40.390Z,-12.13
2022-12-15T06:29:13.314Z,-12.21
2022-12-15T06:31:43.537Z,-12.20
2022-12-15T06:34:17.006Z,-12.26
2022-12-15T06:36:47.645Z,-12.24
2022-12-15T06:39:17.721Z,-12.34
2022-12-15T06:41:47.939Z,-12.38
2022-12-15T06:44:20.508Z,-12.31
2022-12-15T06:46:50.555Z,-12.33
2022-12-15T06:49:18.984Z,-12.33
2022-12-15T06:51:49.919Z,-12.27
2022-12-15T06:54:18.999Z,-12.35
2022-12-15T06:56:47.187Z,-12.30
2022-12-15T06:59:20.149Z,-12.39
2022-12-15T07:01:50.071Z,-12.39
2022-12-15T07:04:20.384Z,-12.36
2022-12-15T07:06:50.037Z,-12.26
2022-12-15T07:09:19.787Z,-12.40
2022-12-15T07:11:51.418Z,-12.42
2022-12-15T07:14:22.519Z,-12.38
2022-12-15T07:16:51.210Z,-12.52
2022-12-15T07:19:20.946Z,-12.61
2022-12-15T07:21:50.743Z,-12.72
2022-12-15T07:24:19.119Z,-12.82
2022-12-15T07:26:48.870Z,-12.78
2022-12-15T07:29:23.275Z,-12.78
2022-12-15T07:31:53.842Z,-12.69
2022-12-15T07:34:24.155Z,-12.67
2022-12-15T07:36:54.204Z,-12.69
2022-12-15T07:39:24.551Z,-12.83
2022-12-15T07:41:55.239Z,-12.81
2022-12-15T07:44:22.973Z,-12.76
2022-12-15T07:46:52.458Z,-12.84
2022-12-15T07:49:20.541Z,-12.69
2022-12-15T07:51:49.266Z,-12.72
2022-12-15T07:54:17.008Z,-12.66
2022-12-15T07:56:50.170Z,-12.56
2022-12-15T07:59:20.810Z,-12.54
2022-12-15T08:01:50.872Z,-12.48
2022-12-15T08:04:21.001Z,-12.41
2022-12-15T08:06:51.435Z,-12.29
2022-12-15T08:09:22.096Z,-12.18
2022-12-15T08:11:51.909Z,-12.07
2022-12-15T08:14:22.255Z,-12.05
2022-12-15T08:16:52.262Z,-12.17
2022-12-15T08:19:22.085Z,-12.24
2022-12-15T08:21:52.076Z,-12.15
2022-12-15T08:24:22.015Z,-12.01
2022-12-15T08:26:53.095Z,-11.74
2022-12-15T08:32:11.696Z,-11.72
2022-12-15T08:34:42.366Z,-11.72
2022-12-15T08:37:12.413Z,-11.65
2022-12-15T08:39:42.862Z,-11.73
2022-12-15T08:42:15.394Z,-11.61
2022-12-15T08:44:50.328Z,-11.47
2022-12-15T08:47:18.263Z,-11.49
2022-12-15T08:49:48.695Z,-11.34
2022-12-15T08:52:18.043Z,-11.36
2022-12-15T08:54:48.027Z,-11.23
2022-12-15T08:57:17.811Z,-11.08
2022-12-15T08:59:47.569Z,-10.79
2022-12-15T09:02:17.699Z,-10.66
2022-12-15T09:04:47.820Z,-10.60
2022-12-15T09:07:17.810Z,-10.56
2022-12-15T09:09:47.377Z,-10.48
2022-12-15T09:12:17.409Z,-10.41
2022-12-15T09:14:46.947Z,-10.46
2022-12-15T09:17:16.767Z,-10.38
2022-12-15T09:19:46.717Z,-10.05
2022-12-15T09:22:16.545Z,-9.78
2022-12-15T09:24:46.837Z,-9.76
2022-12-15T09:27:16.529Z,-9.77
2022-12-15T09:29:46.268Z,-9.64
2022-12-15T09:32:15.979Z,-9.70
2022-12-15T09:34:45.999Z,-9.58
2022-12-15T09:37:15.578Z,-9.48
2022-12-15T09:39:45.432Z,-9.35
2022-12-15T09:42:31.969Z,-9.07
2022-12-15T09:45:28.987Z,-8.78
2022-12-15T09:48:06.728Z,-8.70
2022-12-15T09:50:42.508Z,-8.92
2022-12-15T09:53:52.824Z,-8.69
2022-12-15T09:56:56.024Z,-8.31
2022-12-15T09:59:53.141Z,-7.96
2022-12-15T10:03:27.806Z,-7.71
2022-12-15T10:06:50.803Z,-7.35
2022-12-15T10:09:29.805Z,-7.31
2022-12-15T10:12:09.059Z,-7.10
2022-12-15T10:15:26.589Z,-7.07
2022-12-15T10:18:45.640Z,-7.06
2022-12-15T10:21:28.142Z,-6.91
2022-12-15T10:24:37.292Z,-6.70
2022-12-15T10:28:14.005Z,-6.47
2022-12-15T10:31:31.340Z,-6.92
2022-12-15T10:34:35.948Z,-6.65
2022-12-15T10:37:12.781Z,-6.57
2022-12-15T10:39:46.415Z,-6.40
2022-12-15T10:42:27.657Z,-6.58
2022-12-15T10:44:59.444Z,-6.46
2022-12-15T10:47:32.139Z,-6.44
2022-12-15T10:50:25.587Z,-6.76
2022-12-15T10:52:55.846Z,-6.76
2022-12-15T10:55:52.599Z,-6.86
2022-12-15T10:58:23.667Z,-6.86
2022-12-15T11:01:26.826Z,-6.55
2022-12-15T11:03:58.002Z,-6.49
2022-12-15T11:06:33.605Z,-6.36
2022-12-15T11:09:41.160Z,-6.00
2022-12-15T11:15:55.148Z,-5.72
2022-12-15T11:18:53.391Z,-5.70
2022-12-15T11:21:47.611Z,-5.47
2022-12-15T11:24:45.435Z,-5.37
2022-12-15T11:27:33.623Z,-5.39
2022-12-15T11:30:22.382Z,-5.55
2022-12-15T11:32:57.988Z,-5.39
2022-12-15T11:35:46.723Z,-5.56
2022-12-15T11:39:01.017Z,-5.46
2022-12-15T11:42:02.621Z,-5.23
2022-12-15T11:45:34.766Z,-5.23
2022-12-15T11:48:25.415Z,-5.21
2022-12-15T11:51:41.009Z,-5.20
2022-12-15T11:55:01.735Z,-4.94
2022-12-15T11:58:12.128Z,-4.88
2022-12-15T12:01:19.409Z,-4.75
2022-12-15T12:04:17.916Z,-4.68
2022-12-15T12:07:29.003Z,-4.82
2022-12-15T12:10:42.710Z,-4.71
2022-12-15T12:13:40.875Z,-4.99
2022-12-15T12:16:28.760Z,-4.88
2022-12-15T12:19:11.650Z,-4.60
2022-12-15T12:21:50.945Z,-4.85
2022-12-15T12:24:56.474Z,-5.11
2022-12-15T12:27:54.623Z,-5.18
2022-12-15T12:30:40.079Z,-5.19
2022-12-15T12:33:38.324Z,-5.08
2022-12-15T12:36:15.341Z,-4.89
2022-12-15T12:38:57.640Z,-4.85
2022-12-15T12:41:47.158Z,-4.75
2022-12-15T12:44:35.340Z,-4.84
2022-12-15T12:47:23.444Z,-4.84
2022-12-15T12:50:07.973Z,-4.72
2022-12-15T12:52:38.291Z,-4.82
2022-12-15T12:55:14.812Z,-4.95
2022-12-15T12:57:47.248Z,-4.89
2022-12-15T13:00:28.683Z,-4.96
2022-12-15T13:03:21.057Z,-5.00
2022-12-15T13:05:51.871Z,-4.99
2022-12-15T13:08:50.935Z,-4.94
2022-12-15T13:11:52.911Z,-4.92
2022-12-15T13:14:48.361Z,-4.89
2022-12-15T13:17:51.082Z,-4.90
2022-12-15T13:20:34.831Z,-4.82
2022-12-15T13:23:19.699Z,-4.78
2022-12-15T13:25:59.013Z,-4.77
2022-12-15T13:28:36.394Z,-4.92
2022-12-15T13:31:22.136Z,-4.96
2022-12-15T13:33:50.656Z,-4.78
2022-12-15T13:36:42.328Z,-4.84
2022-12-15T13:39:13.329Z,-4.90
2022-12-15T13:42:31.630Z,-4.97
2022-12-15T13:44:51.942Z,-5.03
2022-12-15T13:47:18.941Z,-5.05
2022-12-15T13:50:29.952Z,-5.10
2022-12-15T13:53:20.232Z,-5.12
2022-12-15T13:56:12.069Z,-5.16
2022-12-15T13:58:56.388Z,-5.21
2022-12-15T14:01:33.320Z,-5.21
2022-12-15T14:04:16.716Z,-5.34
2022-12-15T14:07:02.624Z,-5.38
2022-12-15T14:09:42.330Z,-5.36
2022-12-15T14:12:17.436Z,-5.36
2022-12-15T14:14:50.130Z,-5.42
2022-12-15T14:17:20.447Z,-5.43
2022-12-15T14:19:51.453Z,-5.49
2022-12-15T14:22:30.352Z,-5.55
2022-12-15T14:25:25.359Z,-5.53
2022-12-15T14:27:57.228Z,-5.61
2022-12-15T14:30:29.675Z,-5.65
2022-12-15T14:33:18.063Z,-5.70
2022-12-15T14:35:58.410Z,-5.84
2022-12-15T14:38:49.979Z,-5.97
2022-12-15T14:41:30.193Z,-6.07
2022-12-15T14:47:27.082Z,-6.26
2022-12-15T14:50:02.860Z,-6.33
2022-12-15T14:52:45.044Z,-6.43
2022-12-15T14:55:44.943Z,-6.53
2022-12-15T14:58:36.072Z,-6.63
2022-12-15T15:01:57.746Z,-6.71
2022-12-15T15:03:09.547Z,-5.75
2022-12-15T15:03:09.675Z,-6.16
2022-12-15T15:04:34.574Z,-6.81
2022-12-15T15:07:19.068Z,-6.88
2022-12-15T15:09:51.512Z,-6.95
2022-12-15T15:12:43.486Z,-7.04
2022-12-15T15:15:26.704Z,-7.14
2022-12-15T15:18:00.604Z,-7.20
2022-12-15T15:20:37.936Z,-7.24
2022-12-15T15:23:08.145Z,-7.27
2022-12-15T15:25:48.300Z,-7.32
2022-12-15T15:28:18.440Z,-7.38
2022-12-15T15:31:07.677Z,-7.45
2022-12-15T15:33:38.779Z,-7.49
2022-12-15T15:36:11.562Z,-7.53
2022-12-15T15:38:46.835Z,-7.58
2022-12-15T15:41:29.916Z,-7.64
2022-12-15T15:44:02.390Z,-7.68
2022-12-15T15:46:52.463Z,-7.70
2022-12-15T15:49:24.649Z,-7.75
2022-12-15T15:51:57.015Z,-7.78
2022-12-15T15:54:38.694Z,-7.82
2022-12-15T15:57:19.706Z,-7.87
2022-12-15T15:59:49.737Z,-7.92
2022-12-15T16:02:18.443Z,-7.94
2022-12-15T16:04:46.735Z,-7.89
2022-12-15T16:07:28.667Z,-7.87
2022-12-15T16:09:59.089Z,-7.85
2022-12-15T16:12:53.841Z,-7.83
2022-12-15T16:15:31.640Z,-7.78
2022-12-15T16:18:01.926Z,-7.68
2022-12-15T16:20:33.112Z,-7.51
2022-12-15T16:23:22.659Z,-7.56
2022-12-15T16:26:00.385Z,-7.67
2022-12-15T16:28:33.455Z,-7.71
2022-12-15T16:31:02.045Z,-7.78
2022-12-15T16:33:30.500Z,-7.82
2022-12-15T16:35:59.291Z,-7.87
2022-12-15T16:38:32.693Z,-7.93
2022-12-15T16:41:15.117Z,-7.95
2022-12-15T16:43:48.117Z,-8.00
2022-12-15T16:46:18.499Z,-8.04
2022-12-15T16:48:48.817Z,-8.06
2022-12-15T16:51:40.585Z,-8.06
2022-12-15T16:54:24.211Z,-8.09
2022-12-15T16:56:58.343Z,-8.12
2022-12-15T16:59:33.576Z,-8.17
2022-12-15T17:02:29.209Z,-8.21
2022-12-15T17:04:59.585Z,-8.24
2022-12-15T17:07:29.787Z,-8.26
2022-12-15T17:10:00.104Z,-8.27
2022-12-15T17:12:30.395Z,-8.29
2022-12-15T17:15:02.467Z,-8.32
2022-12-15T17:17:32.474Z,-8.34
2022-12-15T17:20:28.446Z,-8.38
2022-12-15T17:23:04.375Z,-8.42
2022-12-15T17:26:19.599Z,-8.44
2022-12-15T17:28:37.193Z,-8.47
2022-12-15T17:31:23.520Z,-8.49
2022-12-15T17:33:52.624Z,-8.52
2022-12-15T17:36:28.338Z,-8.57
2022-12-15T17:39:01.584Z,-8.60
2022-12-15T17:44:35.743Z,-8.62
2022-12-15T17:47:08.595Z,-8.64
2022-12-15T17:49:39.435Z,-8.66
2022-12-15T17:52:34.805Z,-8.70
2022-12-15T17:55:20.363Z,-8.72
2022-12-15T17:57:55.529Z,-8.73
2022-12-15T18:00:33.092Z,-8.75
2022-12-15T18:03:03.128Z,-8.78
2022-12-15T18:05:31.856Z,-8.84
2022-12-15T18:08:16.784Z,-8.86
2022-12-15T18:10:53.432Z,-8.85
2022-12-15T18:13:35.397Z,-8.87
2022-12-15T18:16:06.961Z,-8.86
2022-12-15T18:18:37.137Z,-8.88
2022-12-15T18:21:18.027Z,-8.87
2022-12-15T18:23:48.299Z,-8.90
2022-12-15T18:26:18.340Z,-8.92
2022-12-15T18:28:49.763Z,-8.93
2022-12-15T18:31:30.437Z,-8.95
2022-12-15T18:34:04.539Z,-8.96
2022-12-15T18:36:35.546Z,-8.99
2022-12-15T18:39:26.414Z,-9.00
2022-12-15T18:41:55.084Z,-9.03
2022-12-15T18:44:32.190Z,-9.06
2022-12-15T18:47:01.057Z,-9.06
2022-12-15T18:49:29.253Z,-9.08
2022-12-15T18:51:57.711Z,-9.10
2022-12-15T18:54:26.620Z,-9.12
2022-12-15T18:56:54.915Z,-9.13
2022-12-15T18:59:23.055Z,-9.13
2022-12-15T19:01:51.484Z,-9.14
2022-12-15T19:04:19.713Z,-9.14
2022-12-15T19:06:48.249Z,-9.16
2022-12-15T19:09:24.404Z,-9.19
2022-12-15T19:12:12.496Z,-9.21
2022-12-15T19:14:43.163Z,-9.23
2022-12-15T19:17:43.129Z,-9.25
2022-12-15T19:20:38.721Z,-9.27
2022-12-15T19:23:07.838Z,-9.27
2022-12-15T19:25:39.837Z,-9.27
2022-12-15T19:28:24.319Z,-9.27
2022-12-15T19:30:53.003Z,-9.29
2022-12-15T19:33:21.764Z,-9.29
2022-12-15T19:35:52.023Z,-9.33
2022-12-15T19:38:32.749Z,-9.34
2022-12-15T19:41:00.919Z,-9.33
2022-12-15T19:43:30.007Z,-9.33
2022-12-15T19:46:00.109Z,-9.35
2022-12-15T19:48:29.865Z,-9.36
2022-12-15T19:50:59.633Z,-9.36
2022-12-15T19:53:31.652Z,-9.39
2022-12-15T19:56:01.856Z,-9.43
2022-12-15T19:58:35.824Z,-9.44
2022-12-15T20:01:17.445Z,-9.45
2022-12-15T20:03:49.638Z,-9.46
2022-12-15T20:06:27.813Z,-9.46
2022-12-15T20:08:57.822Z,-9.49
2022-12-15T20:11:33.154Z,-9.50
2022-12-15T20:14:12.773Z,-9.52
2022-12-15T20:16:40.659Z,-9.54
2022-12-15T20:19:10.583Z,-9.53
2022-12-15T20:21:41.962Z,-9.55
2022-12-15T20:24:19.798Z,-9.60
2022-12-15T20:26:49.840Z,-9.67
2022-12-15T20:29:32.715Z,-9.68
2022-12-15T20:32:02.021Z,-9.68
2022-12-15T20:34:30.176Z,-9.68
2022-12-15T20:36:58.564Z,-9.62
2022-12-15T20:39:30.756Z,-9.58
2022-12-15T20:41:58.615Z,-9.59
2022-12-15T20:44:27.022Z,-9.60
2022-12-15T20:46:55.462Z,-9.62
2022-12-15T20:49:24.678Z,-9.63
2022-12-15T20:51:52.565Z,-9.66
2022-12-15T20:54:23.087Z,-9.66
2022-12-15T20:56:52.641Z,-9.68
2022-12-15T20:59:22.495Z,-9.69
2022-12-15T21:01:52.676Z,-9.70
2022-12-15T21:04:32.102Z,-9.72
2022-12-15T21:07:01.734Z,-9.74
2022-12-15T21:09:28.878Z,-9.73
2022-12-15T21:11:58.664Z,-9.75
2022-12-15T21:14:28.761Z,-9.78
2022-12-15T21:16:58.552Z,-9.79
2022-12-15T21:19:28.660Z,-9.80
2022-12-15T21:21:59.025Z,-9.79
2022-12-15T21:24:31.665Z,-9.79
2022-12-15T21:27:01.680Z,-9.80
2022-12-15T21:29:35.262Z,-9.80
2022-12-15T21:32:02.983Z,-9.81
2022-12-15T21:34:32.783Z,-9.81
2022-12-15T21:37:05.117Z,-9.83
2022-12-15T21:39:37.283Z,-9.83
2022-12-15T21:42:17.145Z,-9.83
2022-12-15T21:44:47.183Z,-9.84
2022-12-15T21:47:51.985Z,-9.87
2022-12-15T21:50:21.138Z,-9.87
2022-12-15T21:52:49.924Z,-9.90
2022-12-15T21:55:27.428Z,-9.92
2022-12-15T21:57:57.777Z,-9.93
2022-12-15T22:00:30.217Z,-9.96
2022-12-15T22:02:57.740Z,-9.96
2022-12-15T22:05:32.586Z,-9.96
2022-12-15T22:08:19.568Z,-9.96
2022-12-15T22:10:51.888Z,-9.95
2022-12-15T22:13:23.881Z,-9.98
2022-12-15T22:15:53.394Z,-10.00
2022-12-15T22:18:24.763Z,-10.02
2022-12-15T22:20:54.567Z,-10.02
2022-12-15T22:23:22.884Z,-10.04
2022-12-15T22:25:56.477Z,-10.06
2022-12-15T22:28:28.740Z,-10.08
2022-12-15T22:31:03.961Z,-10.09
2022-12-15T22:33:32.198Z,-10.10
2022-12-15T22:36:02.074Z,-10.12
2022-12-15T22:38:32.102Z,-10.13
2022-12-15T22:41:04.495Z,-10.12
2022-12-15T22:43:41.732Z,-10.12
2022-12-15T22:46:15.585Z,-10.12
2022-12-15T22:48:48.094Z,-10.13
2022-12-15T22:51:19.763Z,-10.13
2022-12-15T22:53:49.391Z,-10.15
2022-12-15T22:56:34.406Z,-10.16
2022-12-15T22:59:11.704Z,-10.17
2022-12-15T23:01:39.689Z,-10.18
2022-12-15T23:04:07.785Z,-10.18
2022-12-15T23:06:36.074Z,-10.20
2022-12-15T23:09:05.533Z,-10.22
2022-12-15T23:11:39.187Z,-10.23
2022-12-15T23:14:17.156Z,-10.26
2022-12-15T23:16:47.226Z,-10.26
2022-12-15T23:19:25.969Z,-10.26
2022-12-15T23:21:55.922Z,-10.27
2022-12-15T23:24:25.765Z,-10.27
2022-12-15T23:26:55.447Z,-10.26
2022-12-15T23:29:25.326Z,-10.26
2022-12-15T23:31:56.100Z,-10.27
2022-12-15T23:34:26.237Z,-10.25
2022-12-15T23:36:55.969Z,-10.27
2022-12-15T23:39:26.240Z,-10.26
2022-12-15T23:41:55.419Z,-10.27
2022-12-15T23:44:25.137Z,-10.28
2022-12-15T23:46:57.434Z,-10.30
2022-12-15T23:49:24.663Z,-10.35
2022-12-15T23:51:54.446Z,-10.35
2022-12-15T23:54:25.207Z,-10.36
2022-12-15T23:56:55.811Z,-10.36
2022-12-15T23:59:25.048Z,-10.38
